No.3kiyoumaru — JD3417 — position and weather

sailwx.info

Track history (hours):
 
Tides and Currents Weather Stations Pressure Air Temp Water Temp Dewpoint Dewpoint Depression Visibility Wind Speed Wind Dir Waves Ship Positions

No.3kiyoumaru

Last reported at 2017-Oct-19 07:51 UTC. Time now 2017-Oct-22 06:16 UTC.
Position N 35°30' E 139°45'.

Length 65 m.

Type: Ship. MMSI: 431004091.

Date/timePositionNaut miles runAvg speedWind from/ knotsBaromVisibWave heightAir tempDewpointWater temp
2017-Oct-19 07:51N 35°30' E 139°45'2 6.9
2017-Oct-19 07:30N 35°29' E 139°43'0 0.2
2017-Oct-19 07:00N 35°29' E 139°42'0 0.0
2017-Oct-19 06:06N 35°29' E 139°42'0 0.0
2017-Oct-19 05:54N 35°29' E 139°42'0 0.0
2017-Oct-19 05:30N 35°29' E 139°42'0 0.0
2017-Oct-19 04:27N 35°29' E 139°42'0 0.1
2017-Oct-19 03:57N 35°29' E 139°43'3 6.1
2017-Oct-19 03:30N 35°27' E 139°43'3 2.3
2017-Oct-19 02:15N 35°24' E 139°45'0 0.0
2017-Oct-19 01:57N 35°24' E 139°45'0 0.3
2017-Oct-19 01:30N 35°24' E 139°45'5 9.7
2017-Oct-19 01:00N 35°19' E 139°43'5 9.8
2017-Oct-19 00:28N 35°15' E 139°47'5 9.9
2017-Oct-18 23:57N 35°10' E 139°46'5 9.7
2017-Oct-18 23:29N 35°06' E 139°44'5 9.9
2017-Oct-18 23:00N 35°02' E 139°40'229 4.4
2017-Oct-16 19:28N 34°33' E 135°03'  
2017-Oct-13 04:55N 34°35' E 135°07'14 2.4
2017-Oct-12 23:11N 34°29' E 135°22'2 5.0
2017-Oct-12 22:45N 34°31' E 135°20'0 0.0
2017-Oct-12 22:27N 34°31' E 135°20'0 0.0
2017-Oct-12 21:51N 34°31' E 135°20'0 0.0
2017-Oct-12 19:33N 34°31' E 135°20'0 0.0
2017-Oct-12 19:09N 34°31' E 135°20'0 0.0
2017-Oct-12 18:57N 34°31' E 135°20'0 0.0
2017-Oct-12 18:27N 34°31' E 135°20'0 0.1
2017-Oct-12 17:51N 34°31' E 135°20'0 0.0
2017-Oct-12 17:21N 34°31' E 135°20'0 0.0
2017-Oct-12 16:57N 34°31' E 135°20'0 0.1
2017-Oct-12 16:15N 34°31' E 135°20'0 0.0
2017-Oct-12 15:57N 34°31' E 135°20'0 0.0
2017-Oct-12 11:45N 34°31' E 135°20'0 0.1
2017-Oct-12 11:23N 34°31' E 135°20'3 8.3
2017-Oct-12 10:59N 34°30' E 135°16'  
Track history (hours):
 
Tides and Currents Weather Stations Pressure Air Temp Water Temp Dewpoint Dewpoint Depression Visibility Wind Speed Wind Dir Waves Ship Positions

No.3kiyoumaru

Last reported at 2017-Oct-19 07:51 UTC. Time now 2017-Oct-22 06:16 UTC.
Position N 35°30' E 139°45'.

Length 65 m.

Type: Ship. MMSI: 431004091.

Date/timePositionNaut miles runAvg speedWind from/ knotsBaromVisibWave heightAir tempDewpointWater temp
2017-Oct-19 07:51N 35°30' E 139°45'2 6.9
2017-Oct-19 07:30N 35°29' E 139°43'0 0.2
2017-Oct-19 07:00N 35°29' E 139°42'0 0.0
2017-Oct-19 06:06N 35°29' E 139°42'0 0.0
2017-Oct-19 05:54N 35°29' E 139°42'0 0.0
2017-Oct-19 05:30N 35°29' E 139°42'0 0.0
2017-Oct-19 04:27N 35°29' E 139°42'0 0.1
2017-Oct-19 03:57N 35°29' E 139°43'3 6.1
2017-Oct-19 03:30N 35°27' E 139°43'3 2.3
2017-Oct-19 02:15N 35°24' E 139°45'0 0.0
2017-Oct-19 01:57N 35°24' E 139°45'0 0.3
2017-Oct-19 01:30N 35°24' E 139°45'5 9.7
2017-Oct-19 01:00N 35°19' E 139°43'5 9.8
2017-Oct-19 00:28N 35°15' E 139°47'5 9.9
2017-Oct-18 23:57N 35°10' E 139°46'5 9.7
2017-Oct-18 23:29N 35°06' E 139°44'5 9.9
2017-Oct-18 23:00N 35°02' E 139°40'229 4.4
2017-Oct-16 19:28N 34°33' E 135°03'  
2017-Oct-13 04:55N 34°35' E 135°07'14 2.4
2017-Oct-12 23:11N 34°29' E 135°22'2 5.0
2017-Oct-12 22:45N 34°31' E 135°20'0 0.0
2017-Oct-12 22:27N 34°31' E 135°20'0 0.0
2017-Oct-12 21:51N 34°31' E 135°20'0 0.0
2017-Oct-12 19:33N 34°31' E 135°20'0 0.0
2017-Oct-12 19:09N 34°31' E 135°20'0 0.0
2017-Oct-12 18:57N 34°31' E 135°20'0 0.0
2017-Oct-12 18:27N 34°31' E 135°20'0 0.1
2017-Oct-12 17:51N 34°31' E 135°20'0 0.0
2017-Oct-12 17:21N 34°31' E 135°20'0 0.0
2017-Oct-12 16:57N 34°31' E 135°20'0 0.1
2017-Oct-12 16:15N 34°31' E 135°20'0 0.0
2017-Oct-12 15:57N 34°31' E 135°20'0 0.0
2017-Oct-12 11:45N 34°31' E 135°20'0 0.1
2017-Oct-12 11:23N 34°31' E 135°20'3 8.3
2017-Oct-12 10:59N 34°30' E 135°16'  

Dump ship's entire track history